sensor_id;sensor_type;location;lat;lon;timestamp;temperature;humidity
28767;DHT22;15921;52.034;20.650;2023-02-11T00:00:58;2.10;99.90
28767;DHT22;15921;52.034;20.650;2023-02-11T00:03:24;2.10;99.90
28767;DHT22;15921;52.034;20.650;2023-02-11T00:05:57;2.10;99.90
28767;DHT22;15921;52.034;20.650;2023-02-11T00:08:23;2.10;99.90
28767;DHT22;15921;52.034;20.650;2023-02-11T00:10:56;2.10;99.90
28767;DHT22;15921;52.034;20.650;2023-02-11T00:13:23;2.10;99.90
28767;DHT22;15921;52.034;20.650;2023-02-11T00:15:48;2.10;99.90
28767;DHT22;15921;52.034;20.650;2023-02-11T00:18:14;2.20;99.90
28767;DHT22;15921;52.034;20.650;2023-02-11T00:20:40;2.20;99.90
28767;DHT22;15921;52.034;20.650;2023-02-11T00:23:07;2.20;99.90
28767;DHT22;15921;52.034;20.650;2023-02-11T00:25:32;2.20;99.90
28767;DHT22;15921;52.034;20.650;2023-02-11T00:27:58;2.20;99.90
28767;DHT22;15921;52.034;20.650;2023-02-11T00:30:24;2.20;99.90
28767;DHT22;15921;52.034;20.650;2023-02-11T00:32:49;2.20;99.90
28767;DHT22;15921;52.034;20.650;2023-02-11T00:35:15;2.20;99.90
28767;DHT22;15921;52.034;20.650;2023-02-11T00:37:41;2.20;99.90
28767;DHT22;15921;52.034;20.650;2023-02-11T00:40:07;2.30;99.90
28767;DHT22;15921;52.034;20.650;2023-02-11T00:42:33;2.30;99.90
28767;DHT22;15921;52.034;20.650;2023-02-11T00:45:00;2.30;99.90
28767;DHT22;15921;52.034;20.650;2023-02-11T00:47:26;2.30;99.90
28767;DHT22;15921;52.034;20.650;2023-02-11T00:49:51;2.30;99.90
28767;DHT22;15921;52.034;20.650;2023-02-11T00:52:17;2.30;99.90
28767;DHT22;15921;52.034;20.650;2023-02-11T00:54:43;2.20;99.90
28767;DHT22;15921;52.034;20.650;2023-02-11T00:57:08;2.20;99.90
28767;DHT22;15921;52.034;20.650;2023-02-11T00:59:34;2.20;99.90
28767;DHT22;15921;52.034;20.650;2023-02-11T01:02:00;2.20;99.90
28767;DHT22;15921;52.034;20.650;2023-02-11T01:04:25;2.10;99.90
28767;DHT22;15921;52.034;20.650;2023-02-11T01:06:51;2.10;99.90
28767;DHT22;15921;52.034;20.650;2023-02-11T01:09:17;2.10;99.90
28767;DHT22;15921;52.034;20.650;2023-02-11T01:11:43;2.10;99.90
28767;DHT22;15921;52.034;20.650;2023-02-11T01:14:09;2.10;99.90
28767;DHT22;15921;52.034;20.650;2023-02-11T01:16:35;2.10;99.90
28767;DHT22;15921;52.034;20.650;2023-02-11T01:19:00;2.10;99.90
28767;DHT22;15921;52.034;20.650;2023-02-11T01:21:26;2.10;99.90
28767;DHT22;15921;52.034;20.650;2023-02-11T01:23:52;2.10;99.90
28767;DHT22;15921;52.034;20.650;2023-02-11T01:26:17;2.10;99.90
28767;DHT22;15921;52.034;20.650;2023-02-11T01:28:43;2.10;99.90
28767;DHT22;15921;52.034;20.650;2023-02-11T01:31:09;2.20;99.90
28767;DHT22;15921;52.034;20.650;2023-02-11T01:33:35;2.20;99.90
28767;DHT22;15921;52.034;20.650;2023-02-11T01:36:02;2.20;99.90
28767;DHT22;15921;52.034;20.650;2023-02-11T01:38:28;2.20;99.90
28767;DHT22;15921;52.034;20.650;2023-02-11T01:41:06;2.30;99.90
28767;DHT22;15921;52.034;20.650;2023-02-11T01:43:51;2.30;99.90
28767;DHT22;15921;52.034;20.650;2023-02-11T01:46:35;2.30;99.90
28767;DHT22;15921;52.034;20.650;2023-02-11T01:49:03;2.30;99.90
28767;DHT22;15921;52.034;20.650;2023-02-11T01:51:37;2.30;99.90
28767;DHT22;15921;52.034;20.650;2023-02-11T01:54:06;2.30;99.90
28767;DHT22;15921;52.034;20.650;2023-02-11T01:56:52;2.30;99.90
28767;DHT22;15921;52.034;20.650;2023-02-11T01:59:53;2.30;99.90
28767;DHT22;15921;52.034;20.650;2023-02-11T02:02:25;2.30;99.90
28767;DHT22;15921;52.034;20.650;2023-02-11T02:04:54;2.30;99.90
28767;DHT22;15921;52.034;20.650;2023-02-11T02:07:33;2.30;99.90
28767;DHT22;15921;52.034;20.650;2023-02-11T02:10:08;2.30;99.90
28767;DHT22;15921;52.034;20.650;2023-02-11T02:12:35;2.30;99.90
28767;DHT22;15921;52.034;20.650;2023-02-11T02:15:40;2.30;99.90
28767;DHT22;15921;52.034;20.650;2023-02-11T02:34:57;2.10;99.90
28767;DHT22;15921;52.034;20.650;2023-02-11T02:37:35;2.10;99.90
28767;DHT22;15921;52.034;20.650;2023-02-11T02:40:11;2.10;99.90
28767;DHT22;15921;52.034;20.650;2023-02-11T02:42:39;2.10;99.90
28767;DHT22;15921;52.034;20.650;2023-02-11T02:45:06;2.10;99.90
28767;DHT22;15921;52.034;20.650;2023-02-11T02:47:33;2.00;99.90
28767;DHT22;15921;52.034;20.650;2023-02-11T02:49:58;2.00;99.90
28767;DHT22;15921;52.034;20.650;2023-02-11T03:06:02;2.10;99.90
28767;DHT22;15921;52.034;20.650;2023-02-11T03:08:50;2.10;99.90
28767;DHT22;15921;52.034;20.650;2023-02-11T03:11:19;2.10;99.90
28767;DHT22;15921;52.034;20.650;2023-02-11T03:13:47;2.10;99.90
28767;DHT22;15921;52.034;20.650;2023-02-11T03:16:25;2.10;99.90
28767;DHT22;15921;52.034;20.650;2023-02-11T03:19:11;2.20;99.90
28767;DHT22;15921;52.034;20.650;2023-02-11T03:21:39;2.10;99.90
28767;DHT22;15921;52.034;20.650;2023-02-11T03:24:12;2.10;99.90
28767;DHT22;15921;52.034;20.650;2023-02-11T03:26:48;2.10;99.90
28767;DHT22;15921;52.034;20.650;2023-02-11T03:35:04;2.10;99.90
28767;DHT22;15921;52.034;20.650;2023-02-11T03:37:39;2.10;99.90
28767;DHT22;15921;52.034;20.650;2023-02-11T03:40:18;2.10;99.90
28767;DHT22;15921;52.034;20.650;2023-02-11T03:43:17;2.20;99.90
28767;DHT22;15921;52.034;20.650;2023-02-11T03:45:47;2.20;99.90
28767;DHT22;15921;52.034;20.650;2023-02-11T03:48:24;2.20;99.90
28767;DHT22;15921;52.034;20.650;2023-02-11T03:50:51;2.20;99.90
28767;DHT22;15921;52.034;20.650;2023-02-11T03:53:20;2.20;99.90
28767;DHT22;15921;52.034;20.650;2023-02-11T03:55:46;2.20;99.90
28767;DHT22;15921;52.034;20.650;2023-02-11T03:58:12;2.20;99.90
28767;DHT22;15921;52.034;20.650;2023-02-11T04:00:40;2.20;99.90
28767;DHT22;15921;52.034;20.650;2023-02-11T04:03:07;2.20;99.90
28767;DHT22;15921;52.034;20.650;2023-02-11T04:05:33;2.20;99.90
28767;DHT22;15921;52.034;20.650;2023-02-11T04:07:59;2.20;99.90
28767;DHT22;15921;52.034;20.650;2023-02-11T04:10:24;2.20;99.90
28767;DHT22;15921;52.034;20.650;2023-02-11T04:12:50;2.20;99.90
28767;DHT22;15921;52.034;20.650;2023-02-11T04:15:16;2.20;99.90
28767;DHT22;15921;52.034;20.650;2023-02-11T04:17:43;2.10;99.90
28767;DHT22;15921;52.034;20.650;2023-02-11T04:20:09;2.10;99.90
28767;DHT22;15921;52.034;20.650;2023-02-11T04:22:36;2.10;99.90
28767;DHT22;15921;52.034;20.650;2023-02-11T04:25:02;2.10;99.90
28767;DHT22;15921;52.034;20.650;2023-02-11T04:27:28;2.00;99.90
28767;DHT22;15921;52.034;20.650;2023-02-11T04:29:54;2.00;99.90
28767;DHT22;15921;52.034;20.650;2023-02-11T04:32:20;2.00;99.90
28767;DHT22;15921;52.034;20.650;2023-02-11T04:34:45;2.00;99.90
28767;DHT22;15921;52.034;20.650;2023-02-11T04:37:11;1.90;99.90
28767;DHT22;15921;52.034;20.650;2023-02-11T04:39:36;1.90;99.90
28767;DHT22;15921;52.034;20.650;2023-02-11T04:42:02;1.90;99.90
28767;DHT22;15921;52.034;20.650;2023-02-11T04:44:28;1.90;99.90
28767;DHT22;15921;52.034;20.650;2023-02-11T04:46:54;1.80;99.90
28767;DHT22;15921;52.034;20.650;2023-02-11T04:49:20;1.80;99.90
28767;DHT22;15921;52.034;20.650;2023-02-11T04:51:45;1.80;99.90
28767;DHT22;15921;52.034;20.650;2023-02-11T04:54:11;1.80;99.90
28767;DHT22;15921;52.034;20.650;2023-02-11T04:56:37;1.90;99.90
28767;DHT22;15921;52.034;20.650;2023-02-11T04:59:03;1.90;99.90
28767;DHT22;15921;52.034;20.650;2023-02-11T05:01:29;2.00;99.90
28767;DHT22;15921;52.034;20.650;2023-02-11T05:03:55;2.00;99.90
28767;DHT22;15921;52.034;20.650;2023-02-11T05:06:21;2.00;99.90
28767;DHT22;15921;52.034;20.650;2023-02-11T05:08:47;1.90;99.90
28767;DHT22;15921;52.034;20.650;2023-02-11T05:11:23;1.80;99.90
28767;DHT22;15921;52.034;20.650;2023-02-11T05:13:49;1.80;99.90
28767;DHT22;15921;52.034;20.650;2023-02-11T05:16:15;1.90;99.90
28767;DHT22;15921;52.034;20.650;2023-02-11T05:18:42;1.90;99.90
28767;DHT22;15921;52.034;20.650;2023-02-11T05:21:10;2.00;99.90
28767;DHT22;15921;52.034;20.650;2023-02-11T05:23:37;2.00;99.90
28767;DHT22;15921;52.034;20.650;2023-02-11T05:26:03;2.00;99.90
28767;DHT22;15921;52.034;20.650;2023-02-11T05:28:29;2.10;99.90
28767;DHT22;15921;52.034;20.650;2023-02-11T05:30:55;2.10;99.90
28767;DHT22;15921;52.034;20.650;2023-02-11T05:33:20;2.10;99.90
28767;DHT22;15921;52.034;20.650;2023-02-11T05:35:46;2.10;99.90
28767;DHT22;15921;52.034;20.650;2023-02-11T05:38:12;2.00;99.90
28767;DHT22;15921;52.034;20.650;2023-02-11T05:40:37;2.00;99.90
28767;DHT22;15921;52.034;20.650;2023-02-11T05:43:03;2.00;99.90
28767;DHT22;15921;52.034;20.650;2023-02-11T05:45:29;2.10;99.90
28767;DHT22;15921;52.034;20.650;2023-02-11T05:47:55;2.10;99.90
28767;DHT22;15921;52.034;20.650;2023-02-11T05:50:21;2.10;99.90
28767;DHT22;15921;52.034;20.650;2023-02-11T05:52:46;2.20;99.90
28767;DHT22;15921;52.034;20.650;2023-02-11T05:55:12;2.20;99.90
28767;DHT22;15921;52.034;20.650;2023-02-11T05:57:37;2.20;99.90
28767;DHT22;15921;52.034;20.650;2023-02-11T06:00:04;2.20;99.90
28767;DHT22;15921;52.034;20.650;2023-02-11T06:02:30;2.30;99.90
28767;DHT22;15921;52.034;20.650;2023-02-11T06:04:56;2.30;99.90
28767;DHT22;15921;52.034;20.650;2023-02-11T06:07:21;2.30;99.90
28767;DHT22;15921;52.034;20.650;2023-02-11T06:09:47;2.30;99.90
28767;DHT22;15921;52.034;20.650;2023-02-11T06:12:13;2.30;99.90
28767;DHT22;15921;52.034;20.650;2023-02-11T06:14:38;2.30;99.90
28767;DHT22;15921;52.034;20.650;2023-02-11T06:17:04;2.40;99.90
28767;DHT22;15921;52.034;20.650;2023-02-11T06:19:29;2.30;99.90
28767;DHT22;15921;52.034;20.650;2023-02-11T06:21:56;2.30;99.90
28767;DHT22;15921;52.034;20.650;2023-02-11T06:24:22;2.30;99.90
28767;DHT22;15921;52.034;20.650;2023-02-11T06:26:47;2.30;99.90
28767;DHT22;15921;52.034;20.650;2023-02-11T06:29:13;2.30;99.90
28767;DHT22;15921;52.034;20.650;2023-02-11T06:31:39;2.40;99.90
28767;DHT22;15921;52.034;20.650;2023-02-11T06:34:06;2.40;99.90
28767;DHT22;15921;52.034;20.650;2023-02-11T06:36:32;2.40;99.90
28767;DHT22;15921;52.034;20.650;2023-02-11T06:38:58;2.40;99.90
28767;DHT22;15921;52.034;20.650;2023-02-11T06:41:23;2.50;99.90
28767;DHT22;15921;52.034;20.650;2023-02-11T06:43:50;2.50;99.90
28767;DHT22;15921;52.034;20.650;2023-02-11T06:46:16;2.50;99.90
28767;DHT22;15921;52.034;20.650;2023-02-11T06:48:42;2.50;99.90
28767;DHT22;15921;52.034;20.650;2023-02-11T06:51:10;2.60;99.90
28767;DHT22;15921;52.034;20.650;2023-02-11T06:53:39;2.60;99.90
28767;DHT22;15921;52.034;20.650;2023-02-11T06:56:07;2.60;99.90
28767;DHT22;15921;52.034;20.650;2023-02-11T06:58:33;2.70;99.90
28767;DHT22;15921;52.034;20.650;2023-02-11T07:00:59;2.70;99.90
28767;DHT22;15921;52.034;20.650;2023-02-11T07:03:28;2.70;99.90
28767;DHT22;15921;52.034;20.650;2023-02-11T07:05:53;2.70;99.90
28767;DHT22;15921;52.034;20.650;2023-02-11T07:08:19;2.70;99.90
28767;DHT22;15921;52.034;20.650;2023-02-11T07:10:44;2.70;99.90
28767;DHT22;15921;52.034;20.650;2023-02-11T07:13:10;2.70;99.90
28767;DHT22;15921;52.034;20.650;2023-02-11T07:15:36;2.70;99.90
28767;DHT22;15921;52.034;20.650;2023-02-11T07:18:02;2.70;99.90
28767;DHT22;15921;52.034;20.650;2023-02-11T07:20:27;2.70;99.90
28767;DHT22;15921;52.034;20.650;2023-02-11T07:22:53;2.70;99.90
28767;DHT22;15921;52.034;20.650;2023-02-11T07:25:19;2.70;99.90
28767;DHT22;15921;52.034;20.650;2023-02-11T07:27:44;2.70;99.90
28767;DHT22;15921;52.034;20.650;2023-02-11T07:30:11;2.70;99.90
28767;DHT22;15921;52.034;20.650;2023-02-11T07:32:36;2.70;99.90
28767;DHT22;15921;52.034;20.650;2023-02-11T07:35:02;2.70;99.90
28767;DHT22;15921;52.034;20.650;2023-02-11T07:37:28;2.80;99.90
28767;DHT22;15921;52.034;20.650;2023-02-11T07:39:54;2.80;99.90
28767;DHT22;15921;52.034;20.650;2023-02-11T07:42:19;2.70;99.90
28767;DHT22;15921;52.034;20.650;2023-02-11T07:44:45;2.70;99.90
28767;DHT22;15921;52.034;20.650;2023-02-11T07:47:10;2.60;99.90
28767;DHT22;15921;52.034;20.650;2023-02-11T07:49:36;2.60;99.90
28767;DHT22;15921;52.034;20.650;2023-02-11T07:52:02;2.60;99.90
28767;DHT22;15921;52.034;20.650;2023-02-11T07:54:27;2.60;99.90
28767;DHT22;15921;52.034;20.650;2023-02-11T07:56:53;2.60;99.90
28767;DHT22;15921;52.034;20.650;2023-02-11T07:59:18;2.60;99.90
28767;DHT22;15921;52.034;20.650;2023-02-11T08:01:44;2.50;99.90
28767;DHT22;15921;52.034;20.650;2023-02-11T08:04:10;2.50;99.90
28767;DHT22;15921;52.034;20.650;2023-02-11T08:06:40;2.50;99.90
28767;DHT22;15921;52.034;20.650;2023-02-11T08:09:07;2.50;99.90
28767;DHT22;15921;52.034;20.650;2023-02-11T08:11:34;2.40;99.90
28767;DHT22;15921;52.034;20.650;2023-02-11T08:13:59;2.50;99.90
28767;DHT22;15921;52.034;20.650;2023-02-11T08:16:27;2.40;99.90
28767;DHT22;15921;52.034;20.650;2023-02-11T08:18:55;2.40;99.90
28767;DHT22;15921;52.034;20.650;2023-02-11T08:21:22;2.40;99.90
28767;DHT22;15921;52.034;20.650;2023-02-11T08:23:49;2.30;99.90
28767;DHT22;15921;52.034;20.650;2023-02-11T08:26:17;2.30;99.90
28767;DHT22;15921;52.034;20.650;2023-02-11T08:28:44;2.30;99.90
28767;DHT22;15921;52.034;20.650;2023-02-11T08:31:32;2.20;99.90
28767;DHT22;15921;52.034;20.650;2023-02-11T08:33:58;2.20;99.90
28767;DHT22;15921;52.034;20.650;2023-02-11T08:36:34;2.20;99.90
28767;DHT22;15921;52.034;20.650;2023-02-11T08:39:04;2.30;99.90
28767;DHT22;15921;52.034;20.650;2023-02-11T08:41:31;2.30;99.90
28767;DHT22;15921;52.034;20.650;2023-02-11T08:43:57;2.50;99.90
28767;DHT22;15921;52.034;20.650;2023-02-11T08:46:23;2.50;99.90
28767;DHT22;15921;52.034;20.650;2023-02-11T08:48:49;2.60;99.90
28767;DHT22;15921;52.034;20.650;2023-02-11T08:51:18;2.50;99.90
28767;DHT22;15921;52.034;20.650;2023-02-11T08:53:44;2.40;99.90
28767;DHT22;15921;52.034;20.650;2023-02-11T08:56:12;2.40;99.90
28767;DHT22;15921;52.034;20.650;2023-02-11T08:58:38;2.40;99.90
28767;DHT22;15921;52.034;20.650;2023-02-11T09:01:12;2.40;99.90
28767;DHT22;15921;52.034;20.650;2023-02-11T09:03:38;2.40;99.90
28767;DHT22;15921;52.034;20.650;2023-02-11T09:06:06;2.50;99.90
28767;DHT22;15921;52.034;20.650;2023-02-11T09:08:36;2.60;99.90
28767;DHT22;15921;52.034;20.650;2023-02-11T09:11:03;2.60;99.90
28767;DHT22;15921;52.034;20.650;2023-02-11T09:13:29;2.60;99.90
28767;DHT22;15921;52.034;20.650;2023-02-11T09:15:55;2.60;99.90
28767;DHT22;15921;52.034;20.650;2023-02-11T09:18:21;2.60;99.90
28767;DHT22;15921;52.034;20.650;2023-02-11T09:20:47;2.60;99.90
28767;DHT22;15921;52.034;20.650;2023-02-11T09:23:12;2.60;99.90
28767;DHT22;15921;52.034;20.650;2023-02-11T09:25:39;2.70;99.90
28767;DHT22;15921;52.034;20.650;2023-02-11T09:28:05;2.70;99.90
28767;DHT22;15921;52.034;20.650;2023-02-11T09:30:31;2.80;99.90
28767;DHT22;15921;52.034;20.650;2023-02-11T09:32:57;2.90;99.90
28767;DHT22;15921;52.034;20.650;2023-02-11T09:35:23;2.80;99.90
28767;DHT22;15921;52.034;20.650;2023-02-11T09:37:48;2.80;99.90
28767;DHT22;15921;52.034;20.650;2023-02-11T09:40:15;2.80;99.90
28767;DHT22;15921;52.034;20.650;2023-02-11T09:45:27;2.70;99.90
28767;DHT22;15921;52.034;20.650;2023-02-11T09:47:57;2.70;99.90
28767;DHT22;15921;52.034;20.650;2023-02-11T09:50:31;2.70;99.90
28767;DHT22;15921;52.034;20.650;2023-02-11T09:53:07;2.70;99.90
28767;DHT22;15921;52.034;20.650;2023-02-11T09:55:41;2.70;99.90
28767;DHT22;15921;52.034;20.650;2023-02-11T09:58:19;2.70;99.90
28767;DHT22;15921;52.034;20.650;2023-02-11T10:24:52;2.90;99.90
28767;DHT22;15921;52.034;20.650;2023-02-11T10:27:26;2.80;99.90
28767;DHT22;15921;52.034;20.650;2023-02-11T10:30:06;2.80;99.90
28767;DHT22;15921;52.034;20.650;2023-02-11T10:32:43;2.70;99.90
28767;DHT22;15921;52.034;20.650;2023-02-11T10:35:22;2.70;99.90
28767;DHT22;15921;52.034;20.650;2023-02-11T10:37:48;2.70;99.90
28767;DHT22;15921;52.034;20.650;2023-02-11T10:40:20;2.70;99.90
28767;DHT22;15921;52.034;20.650;2023-02-11T10:42:49;2.60;99.90
28767;DHT22;15921;52.034;20.650;2023-02-11T10:45:47;2.60;99.90
28767;DHT22;15921;52.034;20.650;2023-02-11T10:51:28;2.60;99.90
28767;DHT22;15921;52.034;20.650;2023-02-11T10:56:40;2.60;99.90
28767;DHT22;15921;52.034;20.650;2023-02-11T10:59:13;2.60;99.90
28767;DHT22;15921;52.034;20.650;2023-02-11T11:01:52;2.60;99.90
28767;DHT22;15921;52.034;20.650;2023-02-11T11:04:41;2.60;99.90
28767;DHT22;15921;52.034;20.650;2023-02-11T11:07:23;2.60;99.90
28767;DHT22;15921;52.034;20.650;2023-02-11T11:09:59;2.60;99.90
28767;DHT22;15921;52.034;20.650;2023-02-11T11:17:22;2.70;99.90
28767;DHT22;15921;52.034;20.650;2023-02-11T11:19:48;2.70;99.90
28767;DHT22;15921;52.034;20.650;2023-02-11T11:22:21;2.80;99.90
28767;DHT22;15921;52.034;20.650;2023-02-11T11:24:47;2.80;99.90
28767;DHT22;15921;52.034;20.650;2023-02-11T11:27:22;2.80;99.90
28767;DHT22;15921;52.034;20.650;2023-02-11T11:29:52;2.80;99.90
28767;DHT22;15921;52.034;20.650;2023-02-11T11:32:30;2.80;99.90
28767;DHT22;15921;52.034;20.650;2023-02-11T11:35:16;2.80;99.90
28767;DHT22;15921;52.034;20.650;2023-02-11T11:37:44;2.90;99.90
28767;DHT22;15921;52.034;20.650;2023-02-11T11:42:42;2.90;99.90
28767;DHT22;15921;52.034;20.650;2023-02-11T11:47:43;2.90;99.90
28767;DHT22;15921;52.034;20.650;2023-02-11T11:50:41;3.00;99.90
28767;DHT22;15921;52.034;20.650;2023-02-11T11:56:12;3.00;99.90
28767;DHT22;15921;52.034;20.650;2023-02-11T11:58:38;3.00;99.90
28767;DHT22;15921;52.034;20.650;2023-02-11T12:01:29;3.10;99.90
28767;DHT22;15921;52.034;20.650;2023-02-11T12:07:10;3.20;99.90
28767;DHT22;15921;52.034;20.650;2023-02-11T12:12:39;3.30;99.90
28767;DHT22;15921;52.034;20.650;2023-02-11T12:18:01;3.40;99.90
28767;DHT22;15921;52.034;20.650;2023-02-11T12:23:13;3.40;99.90
28767;DHT22;15921;52.034;20.650;2023-02-11T12:25:53;3.40;99.90
28767;DHT22;15921;52.034;20.650;2023-02-11T12:31:29;3.40;99.90
28767;DHT22;15921;52.034;20.650;2023-02-11T12:42:42;3.60;99.90
28767;DHT22;15921;52.034;20.650;2023-02-11T12:48:49;3.60;99.90
28767;DHT22;15921;52.034;20.650;2023-02-11T12:54:03;3.60;99.90
28767;DHT22;15921;52.034;20.650;2023-02-11T13:01:56;3.60;99.90
28767;DHT22;15921;52.034;20.650;2023-02-11T13:06:59;3.60;99.90
28767;DHT22;15921;52.034;20.650;2023-02-11T13:09:38;3.70;99.90
28767;DHT22;15921;52.034;20.650;2023-02-11T13:12:05;3.70;99.90
28767;DHT22;15921;52.034;20.650;2023-02-11T13:14:53;3.70;99.90
28767;DHT22;15921;52.034;20.650;2023-02-11T13:17:27;3.80;99.90
28767;DHT22;15921;52.034;20.650;2023-02-11T13:20:17;3.90;99.90
28767;DHT22;15921;52.034;20.650;2023-02-11T13:23:02;3.90;99.90
28767;DHT22;15921;52.034;20.650;2023-02-11T13:25:39;3.90;99.90
28767;DHT22;15921;52.034;20.650;2023-02-11T13:28:41;3.90;99.90
28767;DHT22;15921;52.034;20.650;2023-02-11T13:31:09;4.00;99.90
28767;DHT22;15921;52.034;20.650;2023-02-11T13:33:40;4.00;99.90
28767;DHT22;15921;52.034;20.650;2023-02-11T13:36:15;4.00;99.90
28767;DHT22;15921;52.034;20.650;2023-02-11T13:38:51;4.00;99.90
28767;DHT22;15921;52.034;20.650;2023-02-11T13:41:29;4.00;99.90
28767;DHT22;15921;52.034;20.650;2023-02-11T13:44:12;4.00;99.90
28767;DHT22;15921;52.034;20.650;2023-02-11T13:46:50;4.00;99.90
28767;DHT22;15921;52.034;20.650;2023-02-11T13:49:24;4.10;99.90
28767;DHT22;15921;52.034;20.650;2023-02-11T13:51:50;4.10;99.90
28767;DHT22;15921;52.034;20.650;2023-02-11T13:54:30;4.10;99.90
28767;DHT22;15921;52.034;20.650;2023-02-11T13:59:47;4.20;99.90
28767;DHT22;15921;52.034;20.650;2023-02-11T14:11:07;4.20;99.90
28767;DHT22;15921;52.034;20.650;2023-02-11T14:16:22;4.20;99.90
28767;DHT22;15921;52.034;20.650;2023-02-11T14:21:23;4.20;99.90
28767;DHT22;15921;52.034;20.650;2023-02-11T14:29:23;4.20;99.90
28767;DHT22;15921;52.034;20.650;2023-02-11T14:34:30;4.20;99.90
28767;DHT22;15921;52.034;20.650;2023-02-11T14:42:18;4.30;99.90
28767;DHT22;15921;52.034;20.650;2023-02-11T14:44:48;4.30;99.90
28767;DHT22;15921;52.034;20.650;2023-02-11T14:47:18;4.30;99.90
28767;DHT22;15921;52.034;20.650;2023-02-11T14:49:45;4.30;99.90
28767;DHT22;15921;52.034;20.650;2023-02-11T14:52:22;4.30;99.90
28767;DHT22;15921;52.034;20.650;2023-02-11T14:54:50;4.30;99.90
28767;DHT22;15921;52.034;20.650;2023-02-11T14:57:19;4.30;99.90
28767;DHT22;15921;52.034;20.650;2023-02-11T14:59:58;4.30;99.90
28767;DHT22;15921;52.034;20.650;2023-02-11T15:02:32;4.30;99.90
28767;DHT22;15921;52.034;20.650;2023-02-11T15:05:24;4.30;99.90
28767;DHT22;15921;52.034;20.650;2023-02-11T15:07:56;4.40;99.90
28767;DHT22;15921;52.034;20.650;2023-02-11T15:10:40;4.40;99.90
28767;DHT22;15921;52.034;20.650;2023-02-11T15:13:06;4.40;99.90
28767;DHT22;15921;52.034;20.650;2023-02-11T15:15:32;4.40;99.90
28767;DHT22;15921;52.034;20.650;2023-02-11T15:18:02;4.40;99.90
28767;DHT22;15921;52.034;20.650;2023-02-11T15:20:30;4.50;99.90
28767;DHT22;15921;52.034;20.650;2023-02-11T15:23:00;4.50;99.90
28767;DHT22;15921;52.034;20.650;2023-02-11T15:25:26;4.40;99.90
28767;DHT22;15921;52.034;20.650;2023-02-11T15:27:55;4.50;99.90
28767;DHT22;15921;52.034;20.650;2023-02-11T15:32:57;4.50;99.90
28767;DHT22;15921;52.034;20.650;2023-02-11T15:35:29;4.50;99.90
28767;DHT22;15921;52.034;20.650;2023-02-11T15:37:56;4.50;99.90
28767;DHT22;15921;52.034;20.650;2023-02-11T15:40:28;4.50;99.90
28767;DHT22;15921;52.034;20.650;2023-02-11T15:42:59;4.50;99.90
28767;DHT22;15921;52.034;20.650;2023-02-11T15:45:34;4.50;99.90
28767;DHT22;15921;52.034;20.650;2023-02-11T15:48:08;4.50;99.90
28767;DHT22;15921;52.034;20.650;2023-02-11T15:50:36;4.60;99.90
28767;DHT22;15921;52.034;20.650;2023-02-11T15:58:24;4.60;99.90
28767;DHT22;15921;52.034;20.650;2023-02-11T16:00:51;4.60;99.90
28767;DHT22;15921;52.034;20.650;2023-02-11T16:03:27;4.60;99.90
28767;DHT22;15921;52.034;20.650;2023-02-11T16:06:24;4.60;99.90
28767;DHT22;15921;52.034;20.650;2023-02-11T16:08:59;4.60;99.90
28767;DHT22;15921;52.034;20.650;2023-02-11T16:11:30;4.60;99.90
28767;DHT22;15921;52.034;20.650;2023-02-11T16:13:57;4.60;99.90
28767;DHT22;15921;52.034;20.650;2023-02-11T16:16:31;4.70;99.90
28767;DHT22;15921;52.034;20.650;2023-02-11T16:18:59;4.70;99.90
28767;DHT22;15921;52.034;20.650;2023-02-11T16:21:35;4.70;99.90
28767;DHT22;15921;52.034;20.650;2023-02-11T16:24:05;4.70;99.90
28767;DHT22;15921;52.034;20.650;2023-02-11T16:26:36;4.70;99.90
28767;DHT22;15921;52.034;20.650;2023-02-11T16:29:17;4.60;99.90
28767;DHT22;15921;52.034;20.650;2023-02-11T16:31:47;4.60;99.90
28767;DHT22;15921;52.034;20.650;2023-02-11T16:34:19;4.60;99.90
28767;DHT22;15921;52.034;20.650;2023-02-11T16:36:46;4.60;99.90
28767;DHT22;15921;52.034;20.650;2023-02-11T16:39:11;4.60;99.90
28767;DHT22;15921;52.034;20.650;2023-02-11T16:41:37;4.70;99.90
28767;DHT22;15921;52.034;20.650;2023-02-11T16:44:03;4.70;99.90
28767;DHT22;15921;52.034;20.650;2023-02-11T16:46:30;4.70;99.90
28767;DHT22;15921;52.034;20.650;2023-02-11T16:48:56;4.70;99.90
28767;DHT22;15921;52.034;20.650;2023-02-11T16:51:23;4.70;99.90
28767;DHT22;15921;52.034;20.650;2023-02-11T16:53:49;4.70;99.90
28767;DHT22;15921;52.034;20.650;2023-02-11T16:56:16;4.70;99.90
28767;DHT22;15921;52.034;20.650;2023-02-11T16:58:43;4.80;99.90
28767;DHT22;15921;52.034;20.650;2023-02-11T17:01:09;4.70;99.90
28767;DHT22;15921;52.034;20.650;2023-02-11T17:03:36;4.70;99.90
28767;DHT22;15921;52.034;20.650;2023-02-11T17:06:07;4.80;99.90
28767;DHT22;15921;52.034;20.650;2023-02-11T17:08:33;4.80;99.90
28767;DHT22;15921;52.034;20.650;2023-02-11T17:11:02;4.70;99.90
28767;DHT22;15921;52.034;20.650;2023-02-11T17:13:28;4.80;99.90
28767;DHT22;15921;52.034;20.650;2023-02-11T17:15:54;4.70;99.90
28767;DHT22;15921;52.034;20.650;2023-02-11T17:18:20;4.80;99.90
28767;DHT22;15921;52.034;20.650;2023-02-11T17:20:46;4.80;99.90
28767;DHT22;15921;52.034;20.650;2023-02-11T17:23:11;4.80;99.90
28767;DHT22;15921;52.034;20.650;2023-02-11T17:25:37;4.80;99.90
28767;DHT22;15921;52.034;20.650;2023-02-11T17:28:04;4.80;99.90
28767;DHT22;15921;52.034;20.650;2023-02-11T17:30:30;4.80;99.90
28767;DHT22;15921;52.034;20.650;2023-02-11T17:32:55;4.80;99.90
28767;DHT22;15921;52.034;20.650;2023-02-11T17:35:21;4.80;99.90
28767;DHT22;15921;52.034;20.650;2023-02-11T17:37:47;4.80;99.90
28767;DHT22;15921;52.034;20.650;2023-02-11T17:40:15;4.90;99.90
28767;DHT22;15921;52.034;20.650;2023-02-11T17:42:44;4.90;99.90
28767;DHT22;15921;52.034;20.650;2023-02-11T17:45:10;4.80;99.90
28767;DHT22;15921;52.034;20.650;2023-02-11T17:47:37;4.90;99.90
28767;DHT22;15921;52.034;20.650;2023-02-11T17:50:03;4.90;99.90
28767;DHT22;15921;52.034;20.650;2023-02-11T17:52:28;4.90;99.90
28767;DHT22;15921;52.034;20.650;2023-02-11T17:54:54;4.90;99.90
28767;DHT22;15921;52.034;20.650;2023-02-11T17:57:20;4.90;99.90
28767;DHT22;15921;52.034;20.650;2023-02-11T17:59:46;4.90;99.90
28767;DHT22;15921;52.034;20.650;2023-02-11T18:02:12;4.90;99.90
28767;DHT22;15921;52.034;20.650;2023-02-11T18:04:38;4.90;99.90
28767;DHT22;15921;52.034;20.650;2023-02-11T18:07:04;5.00;99.90
28767;DHT22;15921;52.034;20.650;2023-02-11T18:09:30;5.00;99.90
28767;DHT22;15921;52.034;20.650;2023-02-11T18:12:00;5.00;99.90
28767;DHT22;15921;52.034;20.650;2023-02-11T18:14:25;5.00;99.90
28767;DHT22;15921;52.034;20.650;2023-02-11T18:16:51;4.90;99.90
28767;DHT22;15921;52.034;20.650;2023-02-11T18:19:18;4.90;99.90
28767;DHT22;15921;52.034;20.650;2023-02-11T18:21:44;4.90;99.90